sensor_id;sensor_type;location;lat;lon;timestamp;P1;durP1;ratioP1;P2;durP2;ratioP2
75408;SDS011;63979;55.644;37.734;2023-12-07T00:03:39;12.85;;;6.78;;
75408;SDS011;63979;55.644;37.734;2023-12-07T00:08:42;11.63;;;6.03;;
75408;SDS011;63979;55.644;37.734;2023-12-07T00:13:45;14.27;;;7.13;;
75408;SDS011;63979;55.644;37.734;2023-12-07T00:18:47;11.57;;;7.63;;
75408;SDS011;63979;55.644;37.734;2023-12-07T00:23:51;16.92;;;9.75;;
75408;SDS011;63979;55.644;37.734;2023-12-07T00:28:54;9.27;;;5.80;;
75408;SDS011;63979;55.644;37.734;2023-12-07T00:34:01;19.27;;;10.38;;
75408;SDS011;63979;55.644;37.734;2023-12-07T00:39:03;20.60;;;11.40;;
75408;SDS011;63979;55.644;37.734;2023-12-07T00:44:05;15.18;;;8.27;;
75408;SDS011;63979;55.644;37.734;2023-12-07T00:49:09;16.63;;;9.50;;
75408;SDS011;63979;55.644;37.734;2023-12-07T00:54:11;20.92;;;8.65;;
75408;SDS011;63979;55.644;37.734;2023-12-07T00:59:14;17.45;;;9.00;;
75408;SDS011;63979;55.644;37.734;2023-12-07T01:04:16;15.82;;;7.25;;
75408;SDS011;63979;55.644;37.734;2023-12-07T01:09:18;19.02;;;9.20;;
75408;SDS011;63979;55.644;37.734;2023-12-07T01:14:20;11.82;;;6.32;;
75408;SDS011;63979;55.644;37.734;2023-12-07T01:19:21;19.55;;;8.60;;
75408;SDS011;63979;55.644;37.734;2023-12-07T01:24:23;11.60;;;8.13;;
75408;SDS011;63979;55.644;37.734;2023-12-07T01:29:24;17.00;;;8.07;;
75408;SDS011;63979;55.644;37.734;2023-12-07T01:34:26;13.18;;;8.05;;
75408;SDS011;63979;55.644;37.734;2023-12-07T01:39:27;18.60;;;7.97;;
75408;SDS011;63979;55.644;37.734;2023-12-07T01:44:29;10.90;;;5.72;;
75408;SDS011;63979;55.644;37.734;2023-12-07T01:49:31;18.00;;;8.13;;
75408;SDS011;63979;55.644;37.734;2023-12-07T01:54:33;7.60;;;5.63;;
75408;SDS011;63979;55.644;37.734;2023-12-07T01:59:36;9.93;;;5.82;;
75408;SDS011;63979;55.644;37.734;2023-12-07T02:04:37;11.88;;;6.22;;
75408;SDS011;63979;55.644;37.734;2023-12-07T02:09:39;7.32;;;5.00;;
75408;SDS011;63979;55.644;37.734;2023-12-07T02:14:42;14.18;;;6.97;;
75408;SDS011;63979;55.644;37.734;2023-12-07T02:29:59;10.32;;;4.95;;
75408;SDS011;63979;55.644;37.734;2023-12-07T02:35:01;8.05;;;6.47;;
75408;SDS011;63979;55.644;37.734;2023-12-07T02:40:05;18.63;;;7.25;;
75408;SDS011;63979;55.644;37.734;2023-12-07T02:45:12;9.15;;;4.60;;
75408;SDS011;63979;55.644;37.734;2023-12-07T02:50:15;10.55;;;4.07;;
75408;SDS011;63979;55.644;37.734;2023-12-07T02:55:16;8.20;;;5.15;;
75408;SDS011;63979;55.644;37.734;2023-12-07T03:00:20;8.55;;;6.18;;
75408;SDS011;63979;55.644;37.734;2023-12-07T03:05:22;7.57;;;4.50;;
75408;SDS011;63979;55.644;37.734;2023-12-07T03:10:25;13.10;;;6.63;;
75408;SDS011;63979;55.644;37.734;2023-12-07T03:15:26;11.70;;;6.57;;
75408;SDS011;63979;55.644;37.734;2023-12-07T03:20:28;10.68;;;5.07;;
75408;SDS011;63979;55.644;37.734;2023-12-07T03:25:29;9.48;;;4.55;;
75408;SDS011;63979;55.644;37.734;2023-12-07T03:30:31;10.40;;;4.45;;
75408;SDS011;63979;55.644;37.734;2023-12-07T03:35:33;11.90;;;5.85;;
75408;SDS011;63979;55.644;37.734;2023-12-07T03:40:34;9.60;;;4.95;;
75408;SDS011;63979;55.644;37.734;2023-12-07T03:45:35;14.40;;;5.95;;
75408;SDS011;63979;55.644;37.734;2023-12-07T03:50:38;9.80;;;4.75;;
75408;SDS011;63979;55.644;37.734;2023-12-07T03:55:39;14.48;;;6.13;;
75408;SDS011;63979;55.644;37.734;2023-12-07T04:00:40;10.57;;;4.80;;
75408;SDS011;63979;55.644;37.734;2023-12-07T04:05:42;6.80;;;5.10;;
75408;SDS011;63979;55.644;37.734;2023-12-07T04:10:44;6.40;;;4.38;;
75408;SDS011;63979;55.644;37.734;2023-12-07T04:15:46;14.45;;;5.35;;
75408;SDS011;63979;55.644;37.734;2023-12-07T04:20:48;10.32;;;3.83;;
75408;SDS011;63979;55.644;37.734;2023-12-07T04:25:50;9.60;;;3.92;;
75408;SDS011;63979;55.644;37.734;2023-12-07T04:30:51;9.00;;;5.05;;
75408;SDS011;63979;55.644;37.734;2023-12-07T04:35:53;7.85;;;3.92;;
75408;SDS011;63979;55.644;37.734;2023-12-07T04:40:54;8.63;;;4.82;;
75408;SDS011;63979;55.644;37.734;2023-12-07T04:45:56;7.20;;;4.43;;
75408;SDS011;63979;55.644;37.734;2023-12-07T04:50:58;12.05;;;5.50;;
75408;SDS011;63979;55.644;37.734;2023-12-07T04:56:00;14.00;;;6.35;;
75408;SDS011;63979;55.644;37.734;2023-12-07T05:01:02;10.25;;;3.90;;
75408;SDS011;63979;55.644;37.734;2023-12-07T05:06:04;8.40;;;4.80;;
75408;SDS011;63979;55.644;37.734;2023-12-07T05:11:06;5.18;;;3.42;;
75408;SDS011;63979;55.644;37.734;2023-12-07T05:16:09;8.82;;;3.95;;
75408;SDS011;63979;55.644;37.734;2023-12-07T05:21:11;14.25;;;5.70;;
75408;SDS011;63979;55.644;37.734;2023-12-07T05:26:13;10.05;;;4.15;;
75408;SDS011;63979;55.644;37.734;2023-12-07T05:31:16;4.97;;;2.80;;
75408;SDS011;63979;55.644;37.734;2023-12-07T05:36:17;7.15;;;3.20;;
75408;SDS011;63979;55.644;37.734;2023-12-07T05:41:19;7.18;;;3.50;;
75408;SDS011;63979;55.644;37.734;2023-12-07T05:46:20;10.00;;;5.63;;
75408;SDS011;63979;55.644;37.734;2023-12-07T05:51:23;14.05;;;6.93;;
75408;SDS011;63979;55.644;37.734;2023-12-07T05:56:25;10.45;;;4.57;;
75408;SDS011;63979;55.644;37.734;2023-12-07T06:01:26;9.30;;;4.13;;
75408;SDS011;63979;55.644;37.734;2023-12-07T06:06:28;10.52;;;5.28;;
75408;SDS011;63979;55.644;37.734;2023-12-07T06:11:30;9.40;;;5.30;;
75408;SDS011;63979;55.644;37.734;2023-12-07T06:16:32;8.30;;;4.38;;
75408;SDS011;63979;55.644;37.734;2023-12-07T06:21:35;7.55;;;3.80;;
75408;SDS011;63979;55.644;37.734;2023-12-07T06:26:39;5.97;;;3.88;;
75408;SDS011;63979;55.644;37.734;2023-12-07T06:31:44;6.78;;;4.68;;
75408;SDS011;63979;55.644;37.734;2023-12-07T06:36:46;5.28;;;3.58;;
75408;SDS011;63979;55.644;37.734;2023-12-07T06:41:49;9.68;;;4.88;;
75408;SDS011;63979;55.644;37.734;2023-12-07T06:46:51;8.73;;;6.45;;
75408;SDS011;63979;55.644;37.734;2023-12-07T06:51:52;12.38;;;5.70;;
75408;SDS011;63979;55.644;37.734;2023-12-07T06:56:53;13.10;;;6.78;;
75408;SDS011;63979;55.644;37.734;2023-12-07T07:01:55;18.40;;;8.63;;
75408;SDS011;63979;55.644;37.734;2023-12-07T07:06:56;15.73;;;8.20;;
75408;SDS011;63979;55.644;37.734;2023-12-07T07:11:57;23.25;;;8.90;;
75408;SDS011;63979;55.644;37.734;2023-12-07T07:16:59;17.38;;;8.82;;
75408;SDS011;63979;55.644;37.734;2023-12-07T07:22:00;16.25;;;8.35;;
75408;SDS011;63979;55.644;37.734;2023-12-07T07:27:02;19.35;;;11.45;;
75408;SDS011;63979;55.644;37.734;2023-12-07T07:32:04;23.75;;;11.88;;
75408;SDS011;63979;55.644;37.734;2023-12-07T07:37:06;21.75;;;11.32;;
75408;SDS011;63979;55.644;37.734;2023-12-07T07:42:09;28.17;;;11.82;;
75408;SDS011;63979;55.644;37.734;2023-12-07T07:47:10;23.02;;;11.00;;
75408;SDS011;63979;55.644;37.734;2023-12-07T07:52:12;24.67;;;11.85;;
75408;SDS011;63979;55.644;37.734;2023-12-07T07:57:13;19.30;;;11.30;;
75408;SDS011;63979;55.644;37.734;2023-12-07T08:02:15;24.98;;;11.82;;
75408;SDS011;63979;55.644;37.734;2023-12-07T08:07:16;19.45;;;9.70;;
75408;SDS011;63979;55.644;37.734;2023-12-07T08:12:18;20.50;;;11.05;;
75408;SDS011;63979;55.644;37.734;2023-12-07T08:17:23;17.77;;;10.25;;
75408;SDS011;63979;55.644;37.734;2023-12-07T08:22:26;21.40;;;10.50;;
75408;SDS011;63979;55.644;37.734;2023-12-07T08:27:28;23.00;;;10.93;;
75408;SDS011;63979;55.644;37.734;2023-12-07T08:32:29;19.58;;;11.93;;
75408;SDS011;63979;55.644;37.734;2023-12-07T08:37:31;20.65;;;11.60;;
75408;SDS011;63979;55.644;37.734;2023-12-07T08:42:33;17.20;;;10.88;;
75408;SDS011;63979;55.644;37.734;2023-12-07T08:47:35;17.73;;;10.70;;
75408;SDS011;63979;55.644;37.734;2023-12-07T08:52:37;15.93;;;10.25;;
75408;SDS011;63979;55.644;37.734;2023-12-07T08:57:38;17.92;;;11.63;;
75408;SDS011;63979;55.644;37.734;2023-12-07T09:02:40;17.17;;;10.90;;
75408;SDS011;63979;55.644;37.734;2023-12-07T09:07:42;17.15;;;9.55;;
75408;SDS011;63979;55.644;37.734;2023-12-07T09:12:44;16.48;;;9.63;;
75408;SDS011;63979;55.644;37.734;2023-12-07T09:17:46;16.23;;;9.60;;
75408;SDS011;63979;55.644;37.734;2023-12-07T09:22:49;14.05;;;9.65;;
75408;SDS011;63979;55.644;37.734;2023-12-07T09:27:52;15.13;;;9.40;;
75408;SDS011;63979;55.644;37.734;2023-12-07T09:32:53;13.27;;;7.65;;
75408;SDS011;63979;55.644;37.734;2023-12-07T09:37:55;10.82;;;8.18;;
75408;SDS011;63979;55.644;37.734;2023-12-07T09:42:57;15.32;;;8.25;;
75408;SDS011;63979;55.644;37.734;2023-12-07T09:47:58;12.05;;;8.10;;
75408;SDS011;63979;55.644;37.734;2023-12-07T09:53:01;12.13;;;7.30;;
75408;SDS011;63979;55.644;37.734;2023-12-07T09:58:05;15.50;;;9.07;;
75408;SDS011;63979;55.644;37.734;2023-12-07T10:03:07;17.30;;;9.10;;
75408;SDS011;63979;55.644;37.734;2023-12-07T10:08:11;13.65;;;7.53;;
75408;SDS011;63979;55.644;37.734;2023-12-07T10:13:29;14.30;;;7.22;;
75408;SDS011;63979;55.644;37.734;2023-12-07T10:18:31;12.70;;;8.32;;
75408;SDS011;63979;55.644;37.734;2023-12-07T10:23:33;15.00;;;8.48;;
75408;SDS011;63979;55.644;37.734;2023-12-07T10:28:34;17.42;;;8.38;;
75408;SDS011;63979;55.644;37.734;2023-12-07T10:33:39;16.02;;;8.05;;
75408;SDS011;63979;55.644;37.734;2023-12-07T10:38:41;15.90;;;7.63;;
75408;SDS011;63979;55.644;37.734;2023-12-07T10:43:43;13.65;;;8.02;;
75408;SDS011;63979;55.644;37.734;2023-12-07T10:48:47;13.85;;;7.40;;
75408;SDS011;63979;55.644;37.734;2023-12-07T10:53:52;12.43;;;7.00;;
75408;SDS011;63979;55.644;37.734;2023-12-07T10:58:55;12.23;;;7.63;;
75408;SDS011;63979;55.644;37.734;2023-12-07T11:04:00;15.38;;;8.85;;
75408;SDS011;63979;55.644;37.734;2023-12-07T11:09:03;14.38;;;8.77;;
75408;SDS011;63979;55.644;37.734;2023-12-07T11:14:10;14.10;;;7.70;;
75408;SDS011;63979;55.644;37.734;2023-12-07T11:24:33;16.85;;;8.52;;
75408;SDS011;63979;55.644;37.734;2023-12-07T11:29:36;10.05;;;6.10;;
75408;SDS011;63979;55.644;37.734;2023-12-07T11:34:42;16.95;;;7.88;;
75408;SDS011;63979;55.644;37.734;2023-12-07T11:39:44;10.45;;;6.00;;
75408;SDS011;63979;55.644;37.734;2023-12-07T11:44:49;10.43;;;6.72;;
75408;SDS011;63979;55.644;37.734;2023-12-07T11:49:51;15.77;;;7.70;;
75408;SDS011;63979;55.644;37.734;2023-12-07T11:54:53;13.80;;;6.65;;
75408;SDS011;63979;55.644;37.734;2023-12-07T11:59:55;11.77;;;6.38;;
75408;SDS011;63979;55.644;37.734;2023-12-07T12:04:57;9.13;;;5.90;;
75408;SDS011;63979;55.644;37.734;2023-12-07T12:10:02;11.50;;;6.75;;
75408;SDS011;63979;55.644;37.734;2023-12-07T12:15:06;14.88;;;8.07;;
75408;SDS011;63979;55.644;37.734;2023-12-07T12:20:08;13.52;;;5.35;;
75408;SDS011;63979;55.644;37.734;2023-12-07T12:25:11;15.32;;;5.63;;
75408;SDS011;63979;55.644;37.734;2023-12-07T12:30:13;9.90;;;5.93;;
75408;SDS011;63979;55.644;37.734;2023-12-07T12:35:15;10.70;;;5.13;;
75408;SDS011;63979;55.644;37.734;2023-12-07T12:40:20;9.45;;;5.18;;
75408;SDS011;63979;55.644;37.734;2023-12-07T12:45:23;5.40;;;3.72;;
75408;SDS011;63979;55.644;37.734;2023-12-07T12:50:35;6.18;;;4.22;;
75408;SDS011;63979;55.644;37.734;2023-12-07T12:55:38;7.68;;;4.03;;
75408;SDS011;63979;55.644;37.734;2023-12-07T13:00:40;8.23;;;3.15;;
75408;SDS011;63979;55.644;37.734;2023-12-07T13:10:48;3.53;;;3.00;;
75408;SDS011;63979;55.644;37.734;2023-12-07T13:15:50;6.97;;;3.70;;
75408;SDS011;63979;55.644;37.734;2023-12-07T13:20:52;5.82;;;3.35;;
75408;SDS011;63979;55.644;37.734;2023-12-07T13:25:53;4.55;;;3.40;;
75408;SDS011;63979;55.644;37.734;2023-12-07T13:30:55;9.07;;;3.60;;
75408;SDS011;63979;55.644;37.734;2023-12-07T13:35:56;13.77;;;4.43;;
75408;SDS011;63979;55.644;37.734;2023-12-07T13:40:58;6.13;;;2.75;;
75408;SDS011;63979;55.644;37.734;2023-12-07T13:46:00;9.63;;;4.80;;
75408;SDS011;63979;55.644;37.734;2023-12-07T13:51:02;5.97;;;2.97;;
75408;SDS011;63979;55.644;37.734;2023-12-07T13:56:06;5.25;;;2.50;;
75408;SDS011;63979;55.644;37.734;2023-12-07T14:01:08;10.35;;;4.13;;
75408;SDS011;63979;55.644;37.734;2023-12-07T14:06:10;6.68;;;3.60;;
75408;SDS011;63979;55.644;37.734;2023-12-07T14:11:13;5.72;;;2.88;;
75408;SDS011;63979;55.644;37.734;2023-12-07T14:16:14;8.35;;;4.63;;
75408;SDS011;63979;55.644;37.734;2023-12-07T14:21:18;8.27;;;4.20;;
75408;SDS011;63979;55.644;37.734;2023-12-07T14:26:21;4.18;;;2.90;;
75408;SDS011;63979;55.644;37.734;2023-12-07T14:31:22;6.00;;;3.78;;
75408;SDS011;63979;55.644;37.734;2023-12-07T14:36:24;8.25;;;4.82;;
75408;SDS011;63979;55.644;37.734;2023-12-07T14:41:25;5.22;;;2.63;;
75408;SDS011;63979;55.644;37.734;2023-12-07T14:46:26;6.43;;;3.60;;
75408;SDS011;63979;55.644;37.734;2023-12-07T14:51:27;5.93;;;2.63;;
75408;SDS011;63979;55.644;37.734;2023-12-07T14:56:28;14.90;;;2.88;;
75408;SDS011;63979;55.644;37.734;2023-12-07T15:01:30;6.63;;;3.40;;
75408;SDS011;63979;55.644;37.734;2023-12-07T15:06:31;4.93;;;3.35;;
75408;SDS011;63979;55.644;37.734;2023-12-07T15:11:34;1.80;;;1.27;;
75408;SDS011;63979;55.644;37.734;2023-12-07T15:16:36;4.55;;;2.10;;
75408;SDS011;63979;55.644;37.734;2023-12-07T15:21:38;5.65;;;2.45;;
75408;SDS011;63979;55.644;37.734;2023-12-07T15:26:42;3.70;;;3.05;;
75408;SDS011;63979;55.644;37.734;2023-12-07T15:31:44;6.45;;;3.20;;
75408;SDS011;63979;55.644;37.734;2023-12-07T15:36:46;5.72;;;3.63;;
75408;SDS011;63979;55.644;37.734;2023-12-07T15:41:47;6.15;;;4.03;;
75408;SDS011;63979;55.644;37.734;2023-12-07T15:46:48;4.45;;;2.67;;
75408;SDS011;63979;55.644;37.734;2023-12-07T15:51:50;11.07;;;3.28;;
75408;SDS011;63979;55.644;37.734;2023-12-07T15:56:52;5.15;;;2.85;;
75408;SDS011;63979;55.644;37.734;2023-12-07T16:01:53;6.63;;;2.60;;
75408;SDS011;63979;55.644;37.734;2023-12-07T16:06:55;5.13;;;2.65;;
75408;SDS011;63979;55.644;37.734;2023-12-07T16:11:56;3.92;;;2.70;;
75408;SDS011;63979;55.644;37.734;2023-12-07T16:16:58;7.28;;;4.13;;
75408;SDS011;63979;55.644;37.734;2023-12-07T16:22:00;4.75;;;2.42;;
75408;SDS011;63979;55.644;37.734;2023-12-07T16:27:02;5.60;;;2.90;;
75408;SDS011;63979;55.644;37.734;2023-12-07T16:32:03;3.97;;;2.88;;
75408;SDS011;63979;55.644;37.734;2023-12-07T16:37:05;4.90;;;3.13;;
75408;SDS011;63979;55.644;37.734;2023-12-07T16:42:11;3.97;;;1.90;;
75408;SDS011;63979;55.644;37.734;2023-12-07T16:52:32;3.20;;;1.83;;
75408;SDS011;63979;55.644;37.734;2023-12-07T16:57:33;4.57;;;1.73;;
75408;SDS011;63979;55.644;37.734;2023-12-07T17:02:35;2.65;;;1.80;;
75408;SDS011;63979;55.644;37.734;2023-12-07T17:07:37;4.55;;;3.17;;
75408;SDS011;63979;55.644;37.734;2023-12-07T17:12:39;5.22;;;2.47;;
75408;SDS011;63979;55.644;37.734;2023-12-07T17:17:41;1.60;;;1.05;;
75408;SDS011;63979;55.644;37.734;2023-12-07T17:22:43;4.18;;;2.65;;
75408;SDS011;63979;55.644;37.734;2023-12-07T17:27:44;2.67;;;2.25;;
75408;SDS011;63979;55.644;37.734;2023-12-07T17:32:47;5.45;;;2.20;;
75408;SDS011;63979;55.644;37.734;2023-12-07T17:37:49;2.42;;;2.22;;
75408;SDS011;63979;55.644;37.734;2023-12-07T17:42:50;4.18;;;2.03;;
75408;SDS011;63979;55.644;37.734;2023-12-07T17:47:53;5.50;;;2.83;;
75408;SDS011;63979;55.644;37.734;2023-12-07T17:52:55;6.07;;;3.47;;
75408;SDS011;63979;55.644;37.734;2023-12-07T17:57:56;3.03;;;1.42;;
75408;SDS011;63979;55.644;37.734;2023-12-07T18:02:58;3.30;;;2.03;;
75408;SDS011;63979;55.644;37.734;2023-12-07T18:07:59;1.67;;;1.50;;
75408;SDS011;63979;55.644;37.734;2023-12-07T18:13:02;3.25;;;2.17;;
75408;SDS011;63979;55.644;37.734;2023-12-07T18:18:04;17.25;;;2.65;;
75408;SDS011;63979;55.644;37.734;2023-12-07T18:23:07;2.33;;;1.67;;
75408;SDS011;63979;55.644;37.734;2023-12-07T18:28:11;3.70;;;2.15;;
75408;SDS011;63979;55.644;37.734;2023-12-07T18:33:12;4.22;;;3.15;;
75408;SDS011;63979;55.644;37.734;2023-12-07T18:38:14;11.20;;;4.72;;
75408;SDS011;63979;55.644;37.734;2023-12-07T18:43:18;5.03;;;2.03;;
75408;SDS011;63979;55.644;37.734;2023-12-07T18:48:20;2.05;;;1.00;;
75408;SDS011;63979;55.644;37.734;2023-12-07T18:53:22;7.35;;;2.38;;
75408;SDS011;63979;55.644;37.734;2023-12-07T18:58:26;11.10;;;3.08;;
75408;SDS011;63979;55.644;37.734;2023-12-07T19:03:27;7.18;;;3.05;;
75408;SDS011;63979;55.644;37.734;2023-12-07T19:08:29;2.47;;;2.20;;
75408;SDS011;63979;55.644;37.734;2023-12-07T19:13:31;4.68;;;2.40;;
75408;SDS011;63979;55.644;37.734;2023-12-07T19:18:32;2.85;;;1.20;;
75408;SDS011;63979;55.644;37.734;2023-12-07T19:23:34;4.55;;;3.00;;
75408;SDS011;63979;55.644;37.734;2023-12-07T19:28:36;3.20;;;2.30;;
75408;SDS011;63979;55.644;37.734;2023-12-07T19:33:39;1.50;;;1.40;;
75408;SDS011;63979;55.644;37.734;2023-12-07T19:38:41;3.13;;;1.73;;
75408;SDS011;63979;55.644;37.734;2023-12-07T19:43:43;1.67;;;1.13;;
75408;SDS011;63979;55.644;37.734;2023-12-07T19:48:44;3.15;;;1.33;;
75408;SDS011;63979;55.644;37.734;2023-12-07T19:53:50;3.33;;;2.13;;
75408;SDS011;63979;55.644;37.734;2023-12-07T19:58:52;3.58;;;1.67;;
75408;SDS011;63979;55.644;37.734;2023-12-07T20:03:53;2.55;;;2.30;;
75408;SDS011;63979;55.644;37.734;2023-12-07T20:08:56;1.35;;;1.05;;
75408;SDS011;63979;55.644;37.734;2023-12-07T20:13:57;5.72;;;2.80;;
75408;SDS011;63979;55.644;37.734;2023-12-07T20:19:00;2.10;;;1.73;;
75408;SDS011;63979;55.644;37.734;2023-12-07T20:24:04;4.20;;;2.38;;
75408;SDS011;63979;55.644;37.734;2023-12-07T20:29:07;5.35;;;2.50;;
75408;SDS011;63979;55.644;37.734;2023-12-07T20:34:10;5.68;;;2.13;;
75408;SDS011;63979;55.644;37.734;2023-12-07T20:39:14;1.20;;;0.88;;
75408;SDS011;63979;55.644;37.734;2023-12-07T20:44:20;1.27;;;1.08;;
75408;SDS011;63979;55.644;37.734;2023-12-07T20:49:22;5.53;;;2.38;;
75408;SDS011;63979;55.644;37.734;2023-12-07T20:54:23;1.90;;;1.73;;
75408;SDS011;63979;55.644;37.734;2023-12-07T20:59:27;1.73;;;1.05;;
75408;SDS011;63979;55.644;37.734;2023-12-07T21:04:32;4.13;;;2.95;;
75408;SDS011;63979;55.644;37.734;2023-12-07T21:09:35;3.08;;;2.28;;
75408;SDS011;63979;55.644;37.734;2023-12-07T21:14:40;2.90;;;1.15;;
75408;SDS011;63979;55.644;37.734;2023-12-07T21:19:42;4.03;;;1.95;;
75408;SDS011;63979;55.644;37.734;2023-12-07T21:24:44;5.68;;;2.60;;
75408;SDS011;63979;55.644;37.734;2023-12-07T21:29:47;2.47;;;1.20;;
75408;SDS011;63979;55.644;37.734;2023-12-07T21:34:51;3.08;;;2.15;;
75408;SDS011;63979;55.644;37.734;2023-12-07T21:39:53;2.72;;;2.05;;
75408;SDS011;63979;55.644;37.734;2023-12-07T21:44:58;2.60;;;1.25;;
75408;SDS011;63979;55.644;37.734;2023-12-07T21:50:00;1.95;;;1.38;;
75408;SDS011;63979;55.644;37.734;2023-12-07T21:55:05;1.90;;;1.35;;
75408;SDS011;63979;55.644;37.734;2023-12-07T22:00:08;3.72;;;1.27;;
75408;SDS011;63979;55.644;37.734;2023-12-07T22:05:12;6.20;;;2.20;;
75408;SDS011;63979;55.644;37.734;2023-12-07T22:10:17;9.23;;;3.30;;
75408;SDS011;63979;55.644;37.734;2023-12-07T22:15:26;2.85;;;1.65;;
75408;SDS011;63979;55.644;37.734;2023-12-07T22:20:31;0.68;;;0.68;;
75408;SDS011;63979;55.644;37.734;2023-12-07T22:25:35;3.15;;;1.83;;
75408;SDS011;63979;55.644;37.734;2023-12-07T22:30:38;2.22;;;0.70;;
75408;SDS011;63979;55.644;37.734;2023-12-07T22:35:42;5.45;;;1.63;;
75408;SDS011;63979;55.644;37.734;2023-12-07T22:40:49;3.03;;;2.30;;
75408;SDS011;63979;55.644;37.734;2023-12-07T22:45:52;1.45;;;1.33;;
75408;SDS011;63979;55.644;37.734;2023-12-07T22:50:54;4.65;;;2.58;;
75408;SDS011;63979;55.644;37.734;2023-12-07T22:55:56;5.50;;;2.42;;
75408;SDS011;63979;55.644;37.734;2023-12-07T23:00:58;6.70;;;2.85;;
75408;SDS011;63979;55.644;37.734;2023-12-07T23:06:00;12.82;;;4.88;;
75408;SDS011;63979;55.644;37.734;2023-12-07T23:11:03;4.68;;;2.55;;
75408;SDS011;63979;55.644;37.734;2023-12-07T23:16:06;11.68;;;3.85;;
75408;SDS011;63979;55.644;37.734;2023-12-07T23:21:14;1.83;;;0.75;;
75408;SDS011;63979;55.644;37.734;2023-12-07T23:26:18;3.33;;;1.83;;
75408;SDS011;63979;55.644;37.734;2023-12-07T23:31:20;5.85;;;2.83;;
75408;SDS011;63979;55.644;37.734;2023-12-07T23:36:22;1.08;;;1.08;;
75408;SDS011;63979;55.644;37.734;2023-12-07T23:41:25;2.22;;;2.08;;
75408;SDS011;63979;55.644;37.734;2023-12-07T23:46:26;2.72;;;1.13;;
75408;SDS011;63979;55.644;37.734;2023-12-07T23:51:29;2.58;;;2.08;;
75408;SDS011;63979;55.644;37.734;2023-12-07T23:56:32;0.98;;;0.90;;
